sensor_id;sensor_type;location;lat;lon;timestamp;P1;durP1;ratioP1;P2;durP2;ratioP2
71610;SDS011;59459;51.172;6.682;2023-01-01T00:00:40;21.63;;;12.70;;
71610;SDS011;59459;51.172;6.682;2023-01-01T00:03:06;19.75;;;6.38;;
71610;SDS011;59459;51.172;6.682;2023-01-01T00:05:31;14.10;;;6.90;;
71610;SDS011;59459;51.172;6.682;2023-01-01T00:07:56;12.93;;;6.53;;
71610;SDS011;59459;51.172;6.682;2023-01-01T00:10:21;19.33;;;8.40;;
71610;SDS011;59459;51.172;6.682;2023-01-01T00:12:52;17.55;;;10.75;;
71610;SDS011;59459;51.172;6.682;2023-01-01T00:15:18;24.80;;;11.37;;
71610;SDS011;59459;51.172;6.682;2023-01-01T00:17:43;22.13;;;10.20;;
71610;SDS011;59459;51.172;6.682;2023-01-01T00:20:08;23.43;;;11.17;;
71610;SDS011;59459;51.172;6.682;2023-01-01T00:22:34;24.80;;;12.73;;
71610;SDS011;59459;51.172;6.682;2023-01-01T00:24:59;18.83;;;10.40;;
71610;SDS011;59459;51.172;6.682;2023-01-01T00:27:24;15.63;;;9.50;;
71610;SDS011;59459;51.172;6.682;2023-01-01T00:29:49;19.47;;;9.23;;
71610;SDS011;59459;51.172;6.682;2023-01-01T00:32:15;16.10;;;8.23;;
71610;SDS011;59459;51.172;6.682;2023-01-01T00:34:40;19.67;;;8.23;;
71610;SDS011;59459;51.172;6.682;2023-01-01T00:37:05;16.97;;;8.73;;
71610;SDS011;59459;51.172;6.682;2023-01-01T00:39:30;18.10;;;8.23;;
71610;SDS011;59459;51.172;6.682;2023-01-01T00:41:55;16.90;;;7.60;;
71610;SDS011;59459;51.172;6.682;2023-01-01T00:44:21;14.10;;;7.03;;
71610;SDS011;59459;51.172;6.682;2023-01-01T00:46:46;16.70;;;6.50;;
71610;SDS011;59459;51.172;6.682;2023-01-01T00:49:11;13.53;;;5.73;;
71610;SDS011;59459;51.172;6.682;2023-01-01T00:51:36;13.63;;;5.67;;
71610;SDS011;59459;51.172;6.682;2023-01-01T00:54:01;12.20;;;5.10;;
71610;SDS011;59459;51.172;6.682;2023-01-01T00:56:27;11.20;;;4.83;;
71610;SDS011;59459;51.172;6.682;2023-01-01T00:58:52;11.87;;;5.30;;
71610;SDS011;59459;51.172;6.682;2023-01-01T01:01:17;10.47;;;5.00;;
71610;SDS011;59459;51.172;6.682;2023-01-01T01:03:42;13.20;;;4.90;;
71610;SDS011;59459;51.172;6.682;2023-01-01T01:06:09;11.07;;;4.43;;
71610;SDS011;59459;51.172;6.682;2023-01-01T01:08:35;10.10;;;3.70;;
71610;SDS011;59459;51.172;6.682;2023-01-01T01:11:07;10.30;;;3.40;;
71610;SDS011;59459;51.172;6.682;2023-01-01T01:13:33;11.07;;;2.90;;
71610;SDS011;59459;51.172;6.682;2023-01-01T01:15:58;7.33;;;2.70;;
71610;SDS011;59459;51.172;6.682;2023-01-01T01:18:23;10.03;;;2.63;;
71610;SDS011;59459;51.172;6.682;2023-01-01T01:20:49;10.10;;;2.60;;
71610;SDS011;59459;51.172;6.682;2023-01-01T01:23:15;7.82;;;1.95;;
71610;SDS011;59459;51.172;6.682;2023-01-01T01:25:40;8.37;;;2.10;;
71610;SDS011;59459;51.172;6.682;2023-01-01T01:28:05;10.73;;;2.40;;
71610;SDS011;59459;51.172;6.682;2023-01-01T01:30:30;6.57;;;1.50;;
71610;SDS011;59459;51.172;6.682;2023-01-01T01:32:56;4.97;;;1.63;;
71610;SDS011;59459;51.172;6.682;2023-01-01T01:35:21;4.80;;;1.30;;
71610;SDS011;59459;51.172;6.682;2023-01-01T01:37:46;5.53;;;1.40;;
71610;SDS011;59459;51.172;6.682;2023-01-01T01:40:12;8.00;;;1.38;;
71610;SDS011;59459;51.172;6.682;2023-01-01T01:42:43;8.23;;;1.48;;
71610;SDS011;59459;51.172;6.682;2023-01-01T01:45:09;6.73;;;1.83;;
71610;SDS011;59459;51.172;6.682;2023-01-01T01:55:36;5.63;;;1.48;;
71610;SDS011;59459;51.172;6.682;2023-01-01T01:58:03;6.97;;;1.73;;
71610;SDS011;59459;51.172;6.682;2023-01-01T02:00:29;3.67;;;1.30;;
71610;SDS011;59459;51.172;6.682;2023-01-01T02:03:08;4.87;;;1.30;;
71610;SDS011;59459;51.172;6.682;2023-01-01T02:05:34;5.33;;;1.50;;
71610;SDS011;59459;51.172;6.682;2023-01-01T02:07:59;3.38;;;1.10;;
71610;SDS011;59459;51.172;6.682;2023-01-01T02:10:26;5.88;;;1.40;;
71610;SDS011;59459;51.172;6.682;2023-01-01T02:12:52;3.97;;;1.10;;
71610;SDS011;59459;51.172;6.682;2023-01-01T02:15:17;7.10;;;1.30;;
71610;SDS011;59459;51.172;6.682;2023-01-01T02:20:32;4.75;;;1.38;;
71610;SDS011;59459;51.172;6.682;2023-01-01T02:23:04;5.60;;;1.30;;
71610;SDS011;59459;51.172;6.682;2023-01-01T02:28:00;5.10;;;1.00;;
71610;SDS011;59459;51.172;6.682;2023-01-01T02:30:32;4.20;;;1.07;;
71610;SDS011;59459;51.172;6.682;2023-01-01T02:33:00;6.07;;;1.10;;
71610;SDS011;59459;51.172;6.682;2023-01-01T02:35:27;6.88;;;1.23;;
71610;SDS011;59459;51.172;6.682;2023-01-01T02:37:59;5.15;;;1.45;;
71610;SDS011;59459;51.172;6.682;2023-01-01T02:40:25;6.20;;;1.20;;
71610;SDS011;59459;51.172;6.682;2023-01-01T02:42:51;5.30;;;1.53;;
71610;SDS011;59459;51.172;6.682;2023-01-01T02:45:17;5.65;;;1.20;;
71610;SDS011;59459;51.172;6.682;2023-01-01T02:47:42;5.00;;;1.43;;
71610;SDS011;59459;51.172;6.682;2023-01-01T02:50:15;3.87;;;1.40;;
71610;SDS011;59459;51.172;6.682;2023-01-01T02:57:52;4.60;;;1.58;;
71610;SDS011;59459;51.172;6.682;2023-01-01T03:00:21;4.03;;;0.90;;
71610;SDS011;59459;51.172;6.682;2023-01-01T03:08:24;4.97;;;1.73;;
71610;SDS011;59459;51.172;6.682;2023-01-01T03:11:12;7.95;;;1.80;;
71610;SDS011;59459;51.172;6.682;2023-01-01T03:13:39;8.03;;;1.13;;
71610;SDS011;59459;51.172;6.682;2023-01-01T03:18:43;7.77;;;1.87;;
71610;SDS011;59459;51.172;6.682;2023-01-01T03:21:12;4.53;;;1.02;;
71610;SDS011;59459;51.172;6.682;2023-01-01T03:23:39;7.00;;;1.67;;
71610;SDS011;59459;51.172;6.682;2023-01-01T03:26:07;4.88;;;1.20;;
71610;SDS011;59459;51.172;6.682;2023-01-01T03:28:42;4.57;;;1.10;;
71610;SDS011;59459;51.172;6.682;2023-01-01T03:31:09;4.85;;;1.00;;
71610;SDS011;59459;51.172;6.682;2023-01-01T03:33:37;4.65;;;1.08;;
71610;SDS011;59459;51.172;6.682;2023-01-01T03:36:07;4.47;;;1.25;;
71610;SDS011;59459;51.172;6.682;2023-01-01T03:38:34;3.80;;;1.00;;
71610;SDS011;59459;51.172;6.682;2023-01-01T03:41:12;7.37;;;1.23;;
71610;SDS011;59459;51.172;6.682;2023-01-01T03:43:43;3.08;;;0.93;;
71610;SDS011;59459;51.172;6.682;2023-01-01T03:46:11;5.32;;;1.00;;
71610;SDS011;59459;51.172;6.682;2023-01-01T03:48:37;6.43;;;1.58;;
71610;SDS011;59459;51.172;6.682;2023-01-01T03:51:22;3.78;;;1.08;;
71610;SDS011;59459;51.172;6.682;2023-01-01T03:53:50;4.27;;;1.23;;
71610;SDS011;59459;51.172;6.682;2023-01-01T03:56:21;6.57;;;1.60;;
71610;SDS011;59459;51.172;6.682;2023-01-01T04:01:31;3.67;;;1.30;;
71610;SDS011;59459;51.172;6.682;2023-01-01T04:03:57;6.35;;;1.17;;
71610;SDS011;59459;51.172;6.682;2023-01-01T04:06:23;5.57;;;1.27;;
71610;SDS011;59459;51.172;6.682;2023-01-01T04:08:49;3.22;;;0.90;;
71610;SDS011;59459;51.172;6.682;2023-01-01T04:11:19;5.03;;;1.13;;
71610;SDS011;59459;51.172;6.682;2023-01-01T04:14:03;4.65;;;1.10;;
71610;SDS011;59459;51.172;6.682;2023-01-01T04:16:29;5.20;;;1.20;;
71610;SDS011;59459;51.172;6.682;2023-01-01T04:18:54;5.40;;;1.33;;
71610;SDS011;59459;51.172;6.682;2023-01-01T04:21:19;6.23;;;1.57;;
71610;SDS011;59459;51.172;6.682;2023-01-01T04:23:44;4.90;;;1.10;;
71610;SDS011;59459;51.172;6.682;2023-01-01T04:26:13;4.70;;;1.47;;
71610;SDS011;59459;51.172;6.682;2023-01-01T04:28:38;3.28;;;0.90;;
71610;SDS011;59459;51.172;6.682;2023-01-01T04:31:04;4.20;;;1.20;;
71610;SDS011;59459;51.172;6.682;2023-01-01T04:33:29;6.13;;;1.30;;
71610;SDS011;59459;51.172;6.682;2023-01-01T04:35:54;4.93;;;1.20;;
71610;SDS011;59459;51.172;6.682;2023-01-01T04:38:19;3.10;;;0.93;;
71610;SDS011;59459;51.172;6.682;2023-01-01T04:40:45;4.60;;;1.00;;
71610;SDS011;59459;51.172;6.682;2023-01-01T04:43:11;5.45;;;1.30;;
71610;SDS011;59459;51.172;6.682;2023-01-01T04:45:36;6.27;;;1.10;;
71610;SDS011;59459;51.172;6.682;2023-01-01T04:48:04;6.90;;;1.77;;
71610;SDS011;59459;51.172;6.682;2023-01-01T04:50:30;3.97;;;0.90;;
71610;SDS011;59459;51.172;6.682;2023-01-01T04:52:57;5.33;;;1.53;;
71610;SDS011;59459;51.172;6.682;2023-01-01T04:55:22;3.63;;;1.02;;
71610;SDS011;59459;51.172;6.682;2023-01-01T04:57:47;6.00;;;1.23;;
71610;SDS011;59459;51.172;6.682;2023-01-01T05:00:12;8.17;;;1.40;;
71610;SDS011;59459;51.172;6.682;2023-01-01T05:02:38;4.80;;;1.10;;
71610;SDS011;59459;51.172;6.682;2023-01-01T05:05:03;4.10;;;1.00;;
71610;SDS011;59459;51.172;6.682;2023-01-01T05:07:28;4.80;;;1.08;;
71610;SDS011;59459;51.172;6.682;2023-01-01T05:09:53;4.37;;;1.10;;
71610;SDS011;59459;51.172;6.682;2023-01-01T05:12:18;7.27;;;1.50;;
71610;SDS011;59459;51.172;6.682;2023-01-01T05:14:44;7.60;;;1.20;;
71610;SDS011;59459;51.172;6.682;2023-01-01T05:17:09;5.70;;;2.07;;
71610;SDS011;59459;51.172;6.682;2023-01-01T05:19:34;4.07;;;1.20;;
71610;SDS011;59459;51.172;6.682;2023-01-01T05:21:59;5.43;;;1.40;;
71610;SDS011;59459;51.172;6.682;2023-01-01T05:24:24;5.20;;;1.40;;
71610;SDS011;59459;51.172;6.682;2023-01-01T05:26:50;5.80;;;1.00;;
71610;SDS011;59459;51.172;6.682;2023-01-01T05:29:15;3.47;;;0.90;;
71610;SDS011;59459;51.172;6.682;2023-01-01T05:31:40;4.53;;;1.20;;
71610;SDS011;59459;51.172;6.682;2023-01-01T05:34:05;5.97;;;1.37;;
71610;SDS011;59459;51.172;6.682;2023-01-01T05:36:31;4.00;;;1.00;;
71610;SDS011;59459;51.172;6.682;2023-01-01T05:38:57;6.13;;;1.40;;
71610;SDS011;59459;51.172;6.682;2023-01-01T05:41:23;4.00;;;1.43;;
71610;SDS011;59459;51.172;6.682;2023-01-01T05:43:48;7.90;;;1.33;;
71610;SDS011;59459;51.172;6.682;2023-01-01T05:48:40;2.97;;;0.73;;
71610;SDS011;59459;51.172;6.682;2023-01-01T05:51:06;4.82;;;1.58;;
71610;SDS011;59459;51.172;6.682;2023-01-01T05:53:32;8.27;;;1.20;;
71610;SDS011;59459;51.172;6.682;2023-01-01T05:55:57;5.00;;;0.95;;
71610;SDS011;59459;51.172;6.682;2023-01-01T05:58:22;4.00;;;1.20;;
71610;SDS011;59459;51.172;6.682;2023-01-01T06:00:48;4.50;;;1.43;;
71610;SDS011;59459;51.172;6.682;2023-01-01T06:03:13;4.97;;;1.00;;
71610;SDS011;59459;51.172;6.682;2023-01-01T06:05:38;3.63;;;1.20;;
71610;SDS011;59459;51.172;6.682;2023-01-01T06:08:03;3.97;;;1.20;;
71610;SDS011;59459;51.172;6.682;2023-01-01T06:10:28;5.53;;;1.20;;
71610;SDS011;59459;51.172;6.682;2023-01-01T06:12:54;4.20;;;1.03;;
71610;SDS011;59459;51.172;6.682;2023-01-01T06:15:22;6.88;;;1.58;;
71610;SDS011;59459;51.172;6.682;2023-01-01T06:17:47;4.53;;;1.00;;
71610;SDS011;59459;51.172;6.682;2023-01-01T06:20:12;5.20;;;1.13;;
71610;SDS011;59459;51.172;6.682;2023-01-01T06:22:38;5.50;;;1.00;;
71610;SDS011;59459;51.172;6.682;2023-01-01T06:25:03;4.23;;;1.30;;
71610;SDS011;59459;51.172;6.682;2023-01-01T06:27:28;5.30;;;0.90;;
71610;SDS011;59459;51.172;6.682;2023-01-01T06:29:53;5.67;;;1.00;;
71610;SDS011;59459;51.172;6.682;2023-01-01T06:32:19;5.80;;;1.30;;
71610;SDS011;59459;51.172;6.682;2023-01-01T06:34:44;4.60;;;1.40;;
71610;SDS011;59459;51.172;6.682;2023-01-01T06:37:09;4.73;;;1.70;;
71610;SDS011;59459;51.172;6.682;2023-01-01T06:39:34;5.67;;;1.30;;
71610;SDS011;59459;51.172;6.682;2023-01-01T06:42:00;6.63;;;1.40;;
71610;SDS011;59459;51.172;6.682;2023-01-01T06:44:25;7.23;;;1.50;;
71610;SDS011;59459;51.172;6.682;2023-01-01T06:46:50;5.50;;;0.97;;
71610;SDS011;59459;51.172;6.682;2023-01-01T06:49:15;5.83;;;1.50;;
71610;SDS011;59459;51.172;6.682;2023-01-01T06:51:41;6.93;;;1.93;;
71610;SDS011;59459;51.172;6.682;2023-01-01T06:54:07;7.17;;;1.07;;
71610;SDS011;59459;51.172;6.682;2023-01-01T06:56:33;4.65;;;1.38;;
71610;SDS011;59459;51.172;6.682;2023-01-01T06:58:58;5.70;;;0.97;;
71610;SDS011;59459;51.172;6.682;2023-01-01T07:01:24;4.33;;;1.03;;
71610;SDS011;59459;51.172;6.682;2023-01-01T07:03:51;5.60;;;1.83;;
71610;SDS011;59459;51.172;6.682;2023-01-01T07:06:17;4.63;;;1.10;;
71610;SDS011;59459;51.172;6.682;2023-01-01T07:08:42;5.83;;;1.10;;
71610;SDS011;59459;51.172;6.682;2023-01-01T07:11:07;2.97;;;0.80;;
71610;SDS011;59459;51.172;6.682;2023-01-01T07:13:32;10.30;;;1.13;;
71610;SDS011;59459;51.172;6.682;2023-01-01T07:15:57;5.40;;;1.97;;
71610;SDS011;59459;51.172;6.682;2023-01-01T07:18:23;7.27;;;1.60;;
71610;SDS011;59459;51.172;6.682;2023-01-01T07:20:53;5.97;;;1.48;;
71610;SDS011;59459;51.172;6.682;2023-01-01T07:23:18;4.47;;;1.10;;
71610;SDS011;59459;51.172;6.682;2023-01-01T07:25:43;5.53;;;1.50;;
71610;SDS011;59459;51.172;6.682;2023-01-01T07:28:09;6.90;;;1.10;;
71610;SDS011;59459;51.172;6.682;2023-01-01T07:30:34;4.30;;;1.20;;
71610;SDS011;59459;51.172;6.682;2023-01-01T07:32:59;4.37;;;1.23;;
71610;SDS011;59459;51.172;6.682;2023-01-01T07:35:25;6.80;;;1.13;;
71610;SDS011;59459;51.172;6.682;2023-01-01T07:37:50;5.63;;;1.47;;
71610;SDS011;59459;51.172;6.682;2023-01-01T07:40:15;7.97;;;1.33;;
71610;SDS011;59459;51.172;6.682;2023-01-01T07:42:40;6.47;;;1.40;;
71610;SDS011;59459;51.172;6.682;2023-01-01T07:45:05;3.67;;;0.97;;
71610;SDS011;59459;51.172;6.682;2023-01-01T07:47:31;6.53;;;1.30;;
71610;SDS011;59459;51.172;6.682;2023-01-01T07:49:57;7.85;;;1.45;;
71610;SDS011;59459;51.172;6.682;2023-01-01T07:52:22;5.60;;;1.40;;
71610;SDS011;59459;51.172;6.682;2023-01-01T07:54:47;4.80;;;1.40;;
71610;SDS011;59459;51.172;6.682;2023-01-01T07:57:12;7.60;;;2.07;;
71610;SDS011;59459;51.172;6.682;2023-01-01T07:59:38;4.50;;;1.73;;
71610;SDS011;59459;51.172;6.682;2023-01-01T08:02:03;5.07;;;1.53;;
71610;SDS011;59459;51.172;6.682;2023-01-01T08:04:28;5.50;;;1.33;;
71610;SDS011;59459;51.172;6.682;2023-01-01T08:06:53;6.40;;;2.03;;
71610;SDS011;59459;51.172;6.682;2023-01-01T08:09:18;5.27;;;1.30;;
71610;SDS011;59459;51.172;6.682;2023-01-01T08:11:44;4.97;;;1.33;;
71610;SDS011;59459;51.172;6.682;2023-01-01T08:14:09;5.83;;;1.83;;
71610;SDS011;59459;51.172;6.682;2023-01-01T08:16:34;8.35;;;1.65;;
71610;SDS011;59459;51.172;6.682;2023-01-01T08:19:00;8.30;;;1.40;;
71610;SDS011;59459;51.172;6.682;2023-01-01T08:21:25;7.77;;;1.27;;
71610;SDS011;59459;51.172;6.682;2023-01-01T08:23:50;8.23;;;1.67;;
71610;SDS011;59459;51.172;6.682;2023-01-01T08:26:16;4.63;;;1.40;;
71610;SDS011;59459;51.172;6.682;2023-01-01T08:28:41;6.40;;;1.27;;
71610;SDS011;59459;51.172;6.682;2023-01-01T08:31:07;19.23;;;2.67;;
71610;SDS011;59459;51.172;6.682;2023-01-01T08:33:32;5.17;;;1.30;;
71610;SDS011;59459;51.172;6.682;2023-01-01T08:35:57;7.57;;;1.77;;
71610;SDS011;59459;51.172;6.682;2023-01-01T08:38:22;7.43;;;1.27;;
71610;SDS011;59459;51.172;6.682;2023-01-01T08:40:48;8.37;;;1.63;;
71610;SDS011;59459;51.172;6.682;2023-01-01T08:43:13;4.93;;;1.20;;
71610;SDS011;59459;51.172;6.682;2023-01-01T08:45:38;5.10;;;1.10;;
71610;SDS011;59459;51.172;6.682;2023-01-01T08:48:03;4.50;;;1.33;;
71610;SDS011;59459;51.172;6.682;2023-01-01T08:50:29;3.73;;;1.20;;
71610;SDS011;59459;51.172;6.682;2023-01-01T08:52:54;6.00;;;1.60;;
71610;SDS011;59459;51.172;6.682;2023-01-01T08:55:20;4.73;;;1.23;;
71610;SDS011;59459;51.172;6.682;2023-01-01T08:57:45;8.63;;;2.13;;
71610;SDS011;59459;51.172;6.682;2023-01-01T09:00:10;6.30;;;1.47;;
71610;SDS011;59459;51.172;6.682;2023-01-01T09:02:37;7.32;;;1.42;;
71610;SDS011;59459;51.172;6.682;2023-01-01T09:05:02;4.77;;;1.47;;
71610;SDS011;59459;51.172;6.682;2023-01-01T09:07:28;5.67;;;1.67;;
71610;SDS011;59459;51.172;6.682;2023-01-01T09:09:53;6.33;;;1.40;;
71610;SDS011;59459;51.172;6.682;2023-01-01T09:12:18;9.27;;;1.30;;
71610;SDS011;59459;51.172;6.682;2023-01-01T09:14:45;9.10;;;1.83;;
71610;SDS011;59459;51.172;6.682;2023-01-01T09:17:10;4.55;;;1.13;;
71610;SDS011;59459;51.172;6.682;2023-01-01T09:19:36;8.13;;;1.27;;
71610;SDS011;59459;51.172;6.682;2023-01-01T09:22:01;5.60;;;1.63;;
71610;SDS011;59459;51.172;6.682;2023-01-01T09:24:26;7.40;;;2.47;;
71610;SDS011;59459;51.172;6.682;2023-01-01T09:26:51;6.70;;;1.63;;
71610;SDS011;59459;51.172;6.682;2023-01-01T09:29:16;6.87;;;1.43;;
71610;SDS011;59459;51.172;6.682;2023-01-01T09:31:44;8.10;;;1.58;;
71610;SDS011;59459;51.172;6.682;2023-01-01T09:34:09;10.47;;;1.63;;
71610;SDS011;59459;51.172;6.682;2023-01-01T09:36:34;6.33;;;1.87;;
71610;SDS011;59459;51.172;6.682;2023-01-01T09:39:00;7.20;;;1.30;;
71610;SDS011;59459;51.172;6.682;2023-01-01T09:41:31;7.18;;;1.70;;
71610;SDS011;59459;51.172;6.682;2023-01-01T09:44:06;6.13;;;1.63;;
71610;SDS011;59459;51.172;6.682;2023-01-01T09:46:33;8.65;;;1.73;;
71610;SDS011;59459;51.172;6.682;2023-01-01T09:49:02;7.10;;;2.15;;
71610;SDS011;59459;51.172;6.682;2023-01-01T09:51:29;9.70;;;1.40;;
71610;SDS011;59459;51.172;6.682;2023-01-01T09:54:04;8.38;;;1.60;;
71610;SDS011;59459;51.172;6.682;2023-01-01T09:56:31;7.57;;;1.67;;
71610;SDS011;59459;51.172;6.682;2023-01-01T09:58:57;7.30;;;1.45;;
71610;SDS011;59459;51.172;6.682;2023-01-01T10:06:38;10.07;;;2.47;;
71610;SDS011;59459;51.172;6.682;2023-01-01T10:11:34;7.97;;;1.33;;
71610;SDS011;59459;51.172;6.682;2023-01-01T10:14:00;6.88;;;1.10;;
71610;SDS011;59459;51.172;6.682;2023-01-01T10:16:37;4.65;;;1.10;;
71610;SDS011;59459;51.172;6.682;2023-01-01T10:19:46;7.07;;;1.70;;
71610;SDS011;59459;51.172;6.682;2023-01-01T10:21:53;8.00;;;1.30;;
71610;SDS011;59459;51.172;6.682;2023-01-01T10:27:04;6.88;;;1.42;;
71610;SDS011;59459;51.172;6.682;2023-01-01T10:29:50;8.82;;;1.20;;
71610;SDS011;59459;51.172;6.682;2023-01-01T10:32:26;4.85;;;1.10;;
71610;SDS011;59459;51.172;6.682;2023-01-01T10:46:58;6.45;;;1.60;;
71610;SDS011;59459;51.172;6.682;2023-01-01T10:49:23;5.57;;;1.63;;
71610;SDS011;59459;51.172;6.682;2023-01-01T10:51:49;5.17;;;1.53;;
71610;SDS011;59459;51.172;6.682;2023-01-01T10:54:21;6.80;;;2.03;;
71610;SDS011;59459;51.172;6.682;2023-01-01T10:56:48;5.75;;;1.60;;
71610;SDS011;59459;51.172;6.682;2023-01-01T10:59:33;7.07;;;2.00;;
71610;SDS011;59459;51.172;6.682;2023-01-01T11:02:32;8.27;;;1.57;;
71610;SDS011;59459;51.172;6.682;2023-01-01T11:04:51;5.80;;;1.40;;
71610;SDS011;59459;51.172;6.682;2023-01-01T11:09:42;7.80;;;2.13;;
71610;SDS011;59459;51.172;6.682;2023-01-01T11:12:15;5.43;;;1.65;;
71610;SDS011;59459;51.172;6.682;2023-01-01T11:17:07;5.37;;;1.40;;
71610;SDS011;59459;51.172;6.682;2023-01-01T11:19:33;6.17;;;1.50;;
71610;SDS011;59459;51.172;6.682;2023-01-01T11:22:00;7.22;;;1.85;;
71610;SDS011;59459;51.172;6.682;2023-01-01T11:24:26;4.87;;;1.80;;
71610;SDS011;59459;51.172;6.682;2023-01-01T11:26:52;9.48;;;1.60;;
71610;SDS011;59459;51.172;6.682;2023-01-01T11:31:49;5.27;;;1.47;;
71610;SDS011;59459;51.172;6.682;2023-01-01T11:36:46;5.68;;;1.50;;
71610;SDS011;59459;51.172;6.682;2023-01-01T11:39:21;8.67;;;1.70;;
71610;SDS011;59459;51.172;6.682;2023-01-01T11:41:49;10.40;;;1.80;;
71610;SDS011;59459;51.172;6.682;2023-01-01T11:44:48;8.38;;;1.75;;
71610;SDS011;59459;51.172;6.682;2023-01-01T11:47:18;9.35;;;1.88;;
71610;SDS011;59459;51.172;6.682;2023-01-01T11:49:44;6.28;;;1.90;;
71610;SDS011;59459;51.172;6.682;2023-01-01T11:52:25;9.00;;;1.83;;
71610;SDS011;59459;51.172;6.682;2023-01-01T11:54:51;6.45;;;1.48;;
71610;SDS011;59459;51.172;6.682;2023-01-01T11:57:17;9.80;;;2.00;;
71610;SDS011;59459;51.172;6.682;2023-01-01T11:59:48;11.63;;;2.60;;
71610;SDS011;59459;51.172;6.682;2023-01-01T12:02:16;8.02;;;2.40;;
71610;SDS011;59459;51.172;6.682;2023-01-01T12:04:49;10.25;;;2.45;;
71610;SDS011;59459;51.172;6.682;2023-01-01T12:07:37;8.57;;;2.43;;
71610;SDS011;59459;51.172;6.682;2023-01-01T12:13:03;16.25;;;3.42;;
71610;SDS011;59459;51.172;6.682;2023-01-01T12:18:12;6.85;;;1.55;;
71610;SDS011;59459;51.172;6.682;2023-01-01T12:20:49;6.27;;;1.63;;
71610;SDS011;59459;51.172;6.682;2023-01-01T12:23:16;9.27;;;2.10;;
71610;SDS011;59459;51.172;6.682;2023-01-01T12:25:43;11.38;;;2.97;;
71610;SDS011;59459;51.172;6.682;2023-01-01T12:28:14;13.27;;;3.00;;
71610;SDS011;59459;51.172;6.682;2023-01-01T12:30:54;7.17;;;1.60;;
71610;SDS011;59459;51.172;6.682;2023-01-01T12:33:24;6.07;;;1.80;;
71610;SDS011;59459;51.172;6.682;2023-01-01T12:38:42;4.80;;;1.85;;
71610;SDS011;59459;51.172;6.682;2023-01-01T12:41:29;4.70;;;1.38;;
71610;SDS011;59459;51.172;6.682;2023-01-01T12:44:06;9.17;;;2.00;;
71610;SDS011;59459;51.172;6.682;2023-01-01T12:59:25;6.70;;;2.17;;
71610;SDS011;59459;51.172;6.682;2023-01-01T13:01:55;3.80;;;1.20;;
71610;SDS011;59459;51.172;6.682;2023-01-01T13:04:21;6.75;;;2.05;;
71610;SDS011;59459;51.172;6.682;2023-01-01T13:06:50;8.13;;;2.20;;
71610;SDS011;59459;51.172;6.682;2023-01-01T13:09:20;8.05;;;2.50;;
71610;SDS011;59459;51.172;6.682;2023-01-01T13:11:46;8.30;;;2.10;;
71610;SDS011;59459;51.172;6.682;2023-01-01T13:14:13;8.68;;;2.22;;
71610;SDS011;59459;51.172;6.682;2023-01-01T13:16:42;6.80;;;2.40;;
71610;SDS011;59459;51.172;6.682;2023-01-01T13:21:50;12.17;;;1.80;;
71610;SDS011;59459;51.172;6.682;2023-01-01T13:24:19;10.70;;;2.50;;
71610;SDS011;59459;51.172;6.682;2023-01-01T13:26:44;11.88;;;2.28;;
71610;SDS011;59459;51.172;6.682;2023-01-01T13:36:48;4.60;;;1.63;;
71610;SDS011;59459;51.172;6.682;2023-01-01T13:39:49;8.53;;;1.60;;
71610;SDS011;59459;51.172;6.682;2023-01-01T13:41:58;7.80;;;1.77;;
71610;SDS011;59459;51.172;6.682;2023-01-01T13:44:23;8.87;;;2.37;;
71610;SDS011;59459;51.172;6.682;2023-01-01T13:56:58;7.20;;;1.50;;
71610;SDS011;59459;51.172;6.682;2023-01-01T14:05:19;6.63;;;2.58;;
71610;SDS011;59459;51.172;6.682;2023-01-01T14:07:29;7.45;;;2.03;;
71610;SDS011;59459;51.172;6.682;2023-01-01T14:12:40;6.78;;;1.80;;
71610;SDS011;59459;51.172;6.682;2023-01-01T14:17:49;8.30;;;1.57;;
71610;SDS011;59459;51.172;6.682;2023-01-01T14:20:16;10.20;;;1.60;;
71610;SDS011;59459;51.172;6.682;2023-01-01T14:22:43;10.13;;;2.40;;
71610;SDS011;59459;51.172;6.682;2023-01-01T14:25:12;7.43;;;1.83;;
71610;SDS011;59459;51.172;6.682;2023-01-01T14:27:38;8.50;;;1.60;;
71610;SDS011;59459;51.172;6.682;2023-01-01T14:30:03;7.07;;;1.87;;
71610;SDS011;59459;51.172;6.682;2023-01-01T14:32:30;5.57;;;1.20;;
71610;SDS011;59459;51.172;6.682;2023-01-01T14:35:00;8.05;;;1.30;;
71610;SDS011;59459;51.172;6.682;2023-01-01T14:37:26;7.50;;;2.13;;
71610;SDS011;59459;51.172;6.682;2023-01-01T14:40:04;7.50;;;1.97;;
71610;SDS011;59459;51.172;6.682;2023-01-01T14:42:29;6.10;;;1.55;;
71610;SDS011;59459;51.172;6.682;2023-01-01T14:44:55;5.43;;;1.83;;
71610;SDS011;59459;51.172;6.682;2023-01-01T14:47:31;7.20;;;1.63;;
71610;SDS011;59459;51.172;6.682;2023-01-01T14:50:00;6.82;;;2.00;;
71610;SDS011;59459;51.172;6.682;2023-01-01T14:52:26;8.07;;;1.67;;
71610;SDS011;59459;51.172;6.682;2023-01-01T14:54:52;7.30;;;2.00;;
71610;SDS011;59459;51.172;6.682;2023-01-01T14:57:22;5.50;;;2.10;;
71610;SDS011;59459;51.172;6.682;2023-01-01T14:59:48;4.53;;;1.65;;
71610;SDS011;59459;51.172;6.682;2023-01-01T15:02:16;8.02;;;1.73;;
71610;SDS011;59459;51.172;6.682;2023-01-01T15:04:44;9.68;;;2.85;;
71610;SDS011;59459;51.172;6.682;2023-01-01T15:07:19;8.67;;;3.13;;
71610;SDS011;59459;51.172;6.682;2023-01-01T15:09:46;7.60;;;2.47;;
71610;SDS011;59459;51.172;6.682;2023-01-01T15:12:11;7.82;;;2.05;;
71610;SDS011;59459;51.172;6.682;2023-01-01T15:14:38;9.70;;;3.23;;
71610;SDS011;59459;51.172;6.682;2023-01-01T15:17:07;11.75;;;2.90;;
71610;SDS011;59459;51.172;6.682;2023-01-01T15:19:33;10.38;;;4.80;;
71610;SDS011;59459;51.172;6.682;2023-01-01T15:24:45;9.05;;;3.55;;
71610;SDS011;59459;51.172;6.682;2023-01-01T15:27:29;8.67;;;2.40;;
71610;SDS011;59459;51.172;6.682;2023-01-01T15:29:55;10.95;;;2.83;;
71610;SDS011;59459;51.172;6.682;2023-01-01T15:32:23;14.97;;;3.27;;
71610;SDS011;59459;51.172;6.682;2023-01-01T15:34:52;9.30;;;3.10;;
71610;SDS011;59459;51.172;6.682;2023-01-01T15:37:22;8.35;;;2.58;;
71610;SDS011;59459;51.172;6.682;2023-01-01T15:39:55;10.75;;;2.20;;
71610;SDS011;59459;51.172;6.682;2023-01-01T15:45:06;8.80;;;3.35;;
71610;SDS011;59459;51.172;6.682;2023-01-01T15:47:31;6.80;;;2.17;;
71610;SDS011;59459;51.172;6.682;2023-01-01T15:50:18;9.10;;;2.70;;
71610;SDS011;59459;51.172;6.682;2023-01-01T15:52:43;6.80;;;2.20;;
71610;SDS011;59459;51.172;6.682;2023-01-01T15:55:14;7.43;;;2.17;;
71610;SDS011;59459;51.172;6.682;2023-01-01T15:57:42;8.30;;;2.13;;
71610;SDS011;59459;51.172;6.682;2023-01-01T16:00:16;6.57;;;2.42;;
71610;SDS011;59459;51.172;6.682;2023-01-01T16:02:41;9.60;;;2.90;;
71610;SDS011;59459;51.172;6.682;2023-01-01T16:05:12;7.13;;;2.30;;
71610;SDS011;59459;51.172;6.682;2023-01-01T16:07:38;7.55;;;2.63;;
71610;SDS011;59459;51.172;6.682;2023-01-01T16:10:05;8.20;;;2.33;;
71610;SDS011;59459;51.172;6.682;2023-01-01T16:12:30;7.07;;;1.60;;
71610;SDS011;59459;51.172;6.682;2023-01-01T16:14:55;8.23;;;2.00;;
71610;SDS011;59459;51.172;6.682;2023-01-01T16:17:20;9.33;;;2.43;;
71610;SDS011;59459;51.172;6.682;2023-01-01T16:19:46;7.50;;;2.43;;
71610;SDS011;59459;51.172;6.682;2023-01-01T16:22:15;8.27;;;2.70;;
71610;SDS011;59459;51.172;6.682;2023-01-01T16:24:41;7.70;;;2.20;;
71610;SDS011;59459;51.172;6.682;2023-01-01T16:27:06;8.07;;;3.05;;
71610;SDS011;59459;51.172;6.682;2023-01-01T16:29:31;8.47;;;2.27;;
71610;SDS011;59459;51.172;6.682;2023-01-01T16:31:57;7.83;;;3.00;;
71610;SDS011;59459;51.172;6.682;2023-01-01T16:34:22;12.57;;;3.50;;
71610;SDS011;59459;51.172;6.682;2023-01-01T16:36:47;12.40;;;4.40;;
71610;SDS011;59459;51.172;6.682;2023-01-01T16:39:12;10.70;;;3.20;;
71610;SDS011;59459;51.172;6.682;2023-01-01T16:41:41;8.10;;;2.60;;
71610;SDS011;59459;51.172;6.682;2023-01-01T16:44:08;6.47;;;2.90;;
71610;SDS011;59459;51.172;6.682;2023-01-01T16:46:34;9.13;;;2.58;;
71610;SDS011;59459;51.172;6.682;2023-01-01T16:49:00;7.57;;;1.90;;